ASA680 KSEA-KSFO
Flight info
| Callsign | ASA680 |
|---|---|
| Flight time | N/A |
| Altitude | 35000 |
| Route | HAROB6 ERAVE Q1 ETCHY DCT MLBEC BDEGA4 |
| Aircraft | B739/M-SDE2E3FGHIRWXY/LB1 |
Departure
| Time | 2026-05-05 22:21 |
|---|---|
| Airport | Seattle–Tacoma International Airport (KSEA) |
Arrival
| Time | N/A |
|---|---|
| Airport | San Francisco International Airport (KSFO) |
| Time | Latitude | Longitude | Altitude | Speed | Heading |
|---|---|---|---|---|---|
| 2026-05-05 22:02 | 47.44668 | -122.30378 | 431 ft | 0 kts | 217° |
| 2026-05-05 22:13 | 47.44675 | -122.30370 | 417 ft | 2 kts | 216° |
| 2026-05-05 22:13 | 47.44688 | -122.30355 | 421 ft | 2 kts | 218° |
| 2026-05-05 22:13 | 47.44700 | -122.30340 | 417 ft | 2 kts | 221° |
| 2026-05-05 22:13 | 47.44710 | -122.30321 | 419 ft | 2 kts | 271° |
| 2026-05-05 22:14 | 47.44707 | -122.30297 | 421 ft | 2 kts | 298° |
| 2026-05-05 22:14 | 47.44698 | -122.30277 | 424 ft | 2 kts | 310° |
| 2026-05-05 22:14 | 47.44695 | -122.30272 | 422 ft | 0 kts | 311° |
| 2026-05-05 22:16 | 47.44698 | -122.30277 | 424 ft | 5 kts | 310° |
| 2026-05-05 22:16 | 47.44741 | -122.30355 | 431 ft | 10 kts | 301° |
| 2026-05-05 22:16 | 47.44755 | -122.30451 | 422 ft | 9 kts | 272° |
| 2026-05-05 22:16 | 47.44756 | -122.30538 | 430 ft | 8 kts | 270° |
| 2026-05-05 22:17 | 47.44779 | -122.30610 | 416 ft | 8 kts | 327° |
| 2026-05-05 22:17 | 47.44869 | -122.30621 | 421 ft | 20 kts | 0° |
| 2026-05-05 22:17 | 47.45014 | -122.30621 | 427 ft | 21 kts | 360° |
| 2026-05-05 22:17 | 47.45156 | -122.30619 | 422 ft | 20 kts | 1° |
| 2026-05-05 22:18 | 47.45293 | -122.30617 | 425 ft | 19 kts | 360° |
| 2026-05-05 22:18 | 47.45439 | -122.30617 | 424 ft | 22 kts | 0° |
| 2026-05-05 22:18 | 47.45590 | -122.30617 | 425 ft | 21 kts | 360° |
| 2026-05-05 22:18 | 47.45740 | -122.30614 | 423 ft | 24 kts | 0° |
| 2026-05-05 22:19 | 47.45912 | -122.30613 | 429 ft | 24 kts | 0° |
| 2026-05-05 22:19 | 47.46076 | -122.30612 | 421 ft | 23 kts | 0° |
| 2026-05-05 22:19 | 47.46233 | -122.30612 | 424 ft | 22 kts | 1° |
| 2026-05-05 22:19 | 47.46352 | -122.30628 | 421 ft | 5 kts | 326° |
| 2026-05-05 22:20 | 47.46353 | -122.30628 | 426 ft | 0 kts | 326° |
| 2026-05-05 22:20 | 47.46371 | -122.30691 | 426 ft | 17 kts | 271° |
| 2026-05-05 22:20 | 47.46305 | -122.30777 | 420 ft | 14 kts | 181° |
| 2026-05-05 22:20 | 47.45965 | -122.30781 | 419 ft | 90 kts | 180° |
| 2026-05-05 22:21 | 47.45083 | -122.30789 | 417 ft | 160 kts | 181° |
| 2026-05-05 22:21 | 47.43835 | -122.30819 | 708 ft | 196 kts | 183° |
| 2026-05-05 22:21 | 47.42377 | -122.30881 | 1431 ft | 219 kts | 183° |
| 2026-05-05 22:21 | 47.40782 | -122.30952 | 2208 ft | 239 kts | 183° |
| 2026-05-05 22:22 | 47.39041 | -122.31035 | 2756 ft | 263 kts | 182° |
| 2026-05-05 22:22 | 47.37196 | -122.31059 | 3583 ft | 266 kts | 181° |
| 2026-05-05 22:22 | 47.35321 | -122.31084 | 4316 ft | 273 kts | 182° |
| 2026-05-05 22:22 | 47.33453 | -122.31635 | 5008 ft | 279 kts | 210° |
| 2026-05-05 22:23 | 47.32070 | -122.33549 | 5852 ft | 272 kts | 241° |
| 2026-05-05 22:23 | 47.31424 | -122.36161 | 6565 ft | 275 kts | 262° |
| 2026-05-05 22:23 | 47.31124 | -122.38959 | 7279 ft | 278 kts | 264° |
| 2026-05-05 22:23 | 47.30839 | -122.41798 | 8015 ft | 282 kts | 263° |
| 2026-05-05 22:24 | 47.30608 | -122.44681 | 8775 ft | 284 kts | 271° |
| 2026-05-05 22:24 | 47.30648 | -122.47602 | 9517 ft | 287 kts | 274° |
| 2026-05-05 22:24 | 47.30767 | -122.50550 | 10217 ft | 291 kts | 275° |
| 2026-05-05 22:24 | 47.30895 | -122.53625 | 10471 ft | 312 kts | 275° |
| 2026-05-05 22:25 | 47.31018 | -122.56931 | 10646 ft | 334 kts | 275° |
| 2026-05-05 22:25 | 47.31134 | -122.60446 | 11013 ft | 348 kts | 274° |
| 2026-05-05 22:25 | 47.31239 | -122.64032 | 11605 ft | 353 kts | 274° |
| 2026-05-05 22:25 | 47.31338 | -122.67615 | 12262 ft | 356 kts | 274° |
| 2026-05-05 22:26 | 47.31435 | -122.71280 | 12917 ft | 359 kts | 274° |
| 2026-05-05 22:26 | 47.31531 | -122.74983 | 13538 ft | 364 kts | 273° |
| 2026-05-05 22:26 | 47.31223 | -122.78710 | 14091 ft | 373 kts | 253° |
| 2026-05-05 22:26 | 47.30251 | -122.82280 | 14650 ft | 377 kts | 250° |
| 2026-05-05 22:27 | 47.29247 | -122.85876 | 15175 ft | 381 kts | 250° |
| 2026-05-05 22:27 | 47.28249 | -122.89508 | 15708 ft | 385 kts | 250° |
| 2026-05-05 22:27 | 47.27256 | -122.93182 | 16277 ft | 388 kts | 251° |
| 2026-05-05 22:27 | 47.26260 | -122.96897 | 16815 ft | 392 kts | 251° |
| 2026-05-05 22:28 | 47.25255 | -123.00647 | 17347 ft | 395 kts | 251° |
| 2026-05-05 22:28 | 47.23937 | -123.04220 | 17827 ft | 405 kts | 231° |
| 2026-05-05 22:28 | 47.21850 | -123.07024 | 18368 ft | 410 kts | 218° |
| 2026-05-05 22:28 | 47.19540 | -123.09535 | 18838 ft | 413 kts | 217° |
| 2026-05-05 22:29 | 47.17197 | -123.12011 | 19293 ft | 417 kts | 217° |
| 2026-05-05 22:29 | 47.14829 | -123.14512 | 19803 ft | 419 kts | 217° |
| 2026-05-05 22:29 | 47.12469 | -123.17026 | 20343 ft | 420 kts | 217° |
| 2026-05-05 22:29 | 47.10106 | -123.19565 | 20840 ft | 423 kts | 218° |
| 2026-05-05 22:30 | 47.07723 | -123.22140 | 21304 ft | 426 kts | 218° |
| 2026-05-05 22:30 | 47.05356 | -123.24703 | 21756 ft | 429 kts | 218° |
| 2026-05-05 22:30 | 47.02945 | -123.27314 | 22211 ft | 432 kts | 218° |
| 2026-05-05 22:30 | 47.00520 | -123.29937 | 22664 ft | 435 kts | 218° |
| 2026-05-05 22:31 | 46.98077 | -123.32577 | 23131 ft | 438 kts | 218° |
| 2026-05-05 22:31 | 46.95611 | -123.35237 | 23575 ft | 441 kts | 218° |
| 2026-05-05 22:31 | 46.93122 | -123.37881 | 23964 ft | 444 kts | 214° |
| 2026-05-05 22:31 | 46.90299 | -123.39759 | 24337 ft | 448 kts | 195° |
| 2026-05-05 22:32 | 46.87202 | -123.40294 | 24746 ft | 450 kts | 179° |
| 2026-05-05 22:32 | 46.84069 | -123.40202 | 25148 ft | 452 kts | 178° |
| 2026-05-05 22:32 | 46.80914 | -123.40051 | 25486 ft | 455 kts | 178° |
| 2026-05-05 22:32 | 46.77734 | -123.39888 | 25823 ft | 458 kts | 178° |
| 2026-05-05 22:33 | 46.74538 | -123.39735 | 26206 ft | 460 kts | 178° |
| 2026-05-05 22:33 | 46.71333 | -123.39600 | 26574 ft | 462 kts | 178° |
| 2026-05-05 22:33 | 46.68149 | -123.39481 | 26916 ft | 465 kts | 178° |
| 2026-05-05 22:33 | 46.64857 | -123.39369 | 27241 ft | 468 kts | 179° |
| 2026-05-05 22:34 | 46.61595 | -123.39265 | 27590 ft | 470 kts | 179° |
| 2026-05-05 22:34 | 46.58322 | -123.39164 | 27977 ft | 471 kts | 179° |
| 2026-05-05 22:34 | 46.55030 | -123.39063 | 28332 ft | 473 kts | 179° |
| 2026-05-05 22:34 | 46.51775 | -123.38963 | 28635 ft | 476 kts | 179° |
| 2026-05-05 22:35 | 46.48409 | -123.38860 | 28940 ft | 479 kts | 179° |
| 2026-05-05 22:35 | 46.45117 | -123.38758 | 29270 ft | 481 kts | 179° |
| 2026-05-05 22:35 | 46.41759 | -123.38654 | 29533 ft | 485 kts | 179° |
| 2026-05-05 22:35 | 46.38373 | -123.38549 | 29837 ft | 487 kts | 179° |
| 2026-05-05 22:36 | 46.34981 | -123.38444 | 30167 ft | 489 kts | 179° |
| 2026-05-05 22:36 | 46.31574 | -123.38339 | 30498 ft | 488 kts | 179° |
| 2026-05-05 22:36 | 46.28183 | -123.38234 | 30828 ft | 488 kts | 179° |
| 2026-05-05 22:36 | 46.24783 | -123.38129 | 31146 ft | 489 kts | 179° |
| 2026-05-05 22:37 | 46.21376 | -123.38024 | 31442 ft | 489 kts | 179° |
| 2026-05-05 22:37 | 46.17968 | -123.37919 | 31711 ft | 490 kts | 179° |
| 2026-05-05 22:37 | 46.14552 | -123.37814 | 32002 ft | 491 kts | 179° |
| 2026-05-05 22:37 | 46.11128 | -123.37708 | 32323 ft | 490 kts | 179° |
| 2026-05-05 22:38 | 46.07719 | -123.37604 | 32626 ft | 490 kts | 179° |
| 2026-05-05 22:38 | 46.04306 | -123.37499 | 32878 ft | 491 kts | 179° |
| 2026-05-05 22:38 | 46.00875 | -123.37394 | 33133 ft | 492 kts | 179° |
| 2026-05-05 22:38 | 45.97490 | -123.37291 | 33424 ft | 492 kts | 179° |
| 2026-05-05 22:39 | 45.94068 | -123.37186 | 33715 ft | 491 kts | 179° |
| 2026-05-05 22:39 | 45.90646 | -123.37082 | 33952 ft | 492 kts | 179° |
| 2026-05-05 22:39 | 45.87218 | -123.36977 | 34194 ft | 492 kts | 179° |
| 2026-05-05 22:39 | 45.83800 | -123.36873 | 34473 ft | 490 kts | 179° |
| 2026-05-05 22:40 | 45.80395 | -123.36770 | 34759 ft | 489 kts | 179° |
| 2026-05-05 22:40 | 45.76998 | -123.36667 | 34996 ft | 488 kts | 179° |
| 2026-05-05 22:40 | 45.73633 | -123.36565 | 35073 ft | 490 kts | 179° |
| 2026-05-05 22:41 | 45.66790 | -123.36358 | 35070 ft | 491 kts | 179° |
| 2026-05-05 22:41 | 45.59976 | -123.36152 | 35061 ft | 488 kts | 179° |
| 2026-05-05 22:42 | 45.53200 | -123.35948 | 35054 ft | 486 kts | 179° |
| 2026-05-05 22:42 | 45.46456 | -123.35745 | 35061 ft | 484 kts | 179° |
| 2026-05-05 22:43 | 45.39734 | -123.35544 | 35057 ft | 483 kts | 179° |
| 2026-05-05 22:43 | 45.33007 | -123.35343 | 35071 ft | 483 kts | 179° |
| 2026-05-05 22:44 | 45.26310 | -123.35143 | 35075 ft | 485 kts | 179° |
| 2026-05-05 22:44 | 45.19542 | -123.34942 | 35078 ft | 487 kts | 179° |
| 2026-05-05 22:45 | 45.12748 | -123.34740 | 35068 ft | 489 kts | 179° |
| 2026-05-05 22:45 | 45.05932 | -123.34538 | 35087 ft | 490 kts | 178° |
| 2026-05-05 22:46 | 44.99094 | -123.34336 | 35073 ft | 492 kts | 178° |
| 2026-05-05 22:46 | 44.92234 | -123.34134 | 35065 ft | 493 kts | 178° |
| 2026-05-05 22:47 | 44.85375 | -123.33932 | 35075 ft | 493 kts | 178° |
| 2026-05-05 22:47 | 44.78506 | -123.33731 | 35062 ft | 493 kts | 178° |
| 2026-05-05 22:48 | 44.71667 | -123.33531 | 35084 ft | 491 kts | 178° |
| 2026-05-05 22:48 | 44.64880 | -123.33333 | 35066 ft | 490 kts | 178° |
| 2026-05-05 22:49 | 44.58065 | -123.33135 | 35072 ft | 489 kts | 178° |
| 2026-05-05 22:49 | 44.51255 | -123.32936 | 35072 ft | 488 kts | 178° |
| 2026-05-05 22:50 | 44.45610 | -123.32744 | 35078 ft | 487 kts | 178° |
| 2026-05-05 22:50 | 44.38844 | -123.32456 | 35085 ft | 486 kts | 177° |
| 2026-05-05 22:51 | 44.32078 | -123.32170 | 35070 ft | 486 kts | 177° |
| 2026-05-05 22:51 | 44.25358 | -123.31897 | 35080 ft | 486 kts | 177° |
| 2026-05-05 22:52 | 44.18601 | -123.31624 | 35073 ft | 486 kts | 177° |
| 2026-05-05 22:52 | 44.11828 | -123.31353 | 35071 ft | 487 kts | 177° |
| 2026-05-05 22:53 | 44.05049 | -123.31083 | 35072 ft | 487 kts | 177° |
| 2026-05-05 22:53 | 43.98308 | -123.30816 | 35069 ft | 487 kts | 177° |
| 2026-05-05 22:54 | 43.91523 | -123.30547 | 35070 ft | 487 kts | 177° |
| 2026-05-05 22:54 | 43.84741 | -123.30279 | 35065 ft | 487 kts | 177° |
| 2026-05-05 22:55 | 43.77956 | -123.30011 | 35059 ft | 487 kts | 177° |
| 2026-05-05 22:55 | 43.71183 | -123.29745 | 35061 ft | 486 kts | 177° |
| 2026-05-05 22:56 | 43.64428 | -123.29479 | 35057 ft | 485 kts | 177° |
| 2026-05-05 22:56 | 43.57672 | -123.29214 | 35055 ft | 485 kts | 177° |
| 2026-05-05 22:57 | 43.50971 | -123.28952 | 35066 ft | 484 kts | 177° |
| 2026-05-05 22:57 | 43.44228 | -123.28689 | 35047 ft | 484 kts | 177° |
| 2026-05-05 22:58 | 43.37497 | -123.28427 | 35054 ft | 483 kts | 177° |
| 2026-05-05 22:58 | 43.30786 | -123.28166 | 35066 ft | 482 kts | 177° |
| 2026-05-05 22:59 | 43.24118 | -123.27908 | 35056 ft | 482 kts | 177° |
| 2026-05-05 22:59 | 43.17407 | -123.27648 | 35057 ft | 482 kts | 177° |
| 2026-05-05 23:00 | 43.07348 | -123.27260 | 35041 ft | 483 kts | 176° |
| 2026-05-05 23:00 | 43.00607 | -123.27001 | 35055 ft | 483 kts | 176° |
| 2026-05-05 23:01 | 42.93871 | -123.26743 | 35029 ft | 484 kts | 176° |
| 2026-05-05 23:01 | 42.87186 | -123.26486 | 35042 ft | 484 kts | 176° |
| 2026-05-05 23:02 | 42.80446 | -123.26230 | 35029 ft | 485 kts | 176° |
| 2026-05-05 23:02 | 42.73694 | -123.25971 | 35010 ft | 485 kts | 176° |
| 2026-05-05 23:03 | 42.66939 | -123.25714 | 35020 ft | 486 kts | 176° |
| 2026-05-05 23:03 | 42.60185 | -123.25458 | 35004 ft | 486 kts | 176° |
| 2026-05-05 23:04 | 42.53424 | -123.25202 | 35003 ft | 486 kts | 176° |
| 2026-05-05 23:04 | 42.46675 | -123.24946 | 34990 ft | 485 kts | 176° |
| 2026-05-05 23:05 | 42.39921 | -123.24700 | 34978 ft | 485 kts | 176° |
| 2026-05-05 23:05 | 42.33167 | -123.24456 | 34978 ft | 485 kts | 176° |
| 2026-05-05 23:06 | 42.26420 | -123.24213 | 34998 ft | 485 kts | 176° |
| 2026-05-05 23:06 | 42.19670 | -123.23969 | 34986 ft | 486 kts | 176° |
| 2026-05-05 23:07 | 42.12913 | -123.23725 | 34971 ft | 486 kts | 176° |
| 2026-05-05 23:07 | 42.06191 | -123.23483 | 34988 ft | 486 kts | 176° |
| 2026-05-05 23:08 | 41.99419 | -123.23240 | 34976 ft | 486 kts | 176° |
| 2026-05-05 23:08 | 41.92648 | -123.22998 | 34965 ft | 486 kts | 176° |
| 2026-05-05 23:09 | 41.85876 | -123.22761 | 34970 ft | 486 kts | 176° |
| 2026-05-05 23:09 | 41.79115 | -123.22516 | 34969 ft | 486 kts | 176° |
| 2026-05-05 23:10 | 41.72359 | -123.22272 | 34973 ft | 485 kts | 176° |
| 2026-05-05 23:10 | 41.65653 | -123.22024 | 34973 ft | 485 kts | 176° |
| 2026-05-05 23:11 | 41.58896 | -123.21793 | 34971 ft | 485 kts | 176° |
| 2026-05-05 23:11 | 41.52146 | -123.21556 | 34965 ft | 485 kts | 176° |